sensor_id;sensor_type;location;lat;lon;timestamp;pressure;altitude;pressure_sealevel;temperature;humidity
10115;BME280;5097;43.260;27.812;2023-04-27T00:00:40;99493.34;;;8.62;86.87
10115;BME280;5097;43.260;27.812;2023-04-27T00:03:24;99504.56;;;8.50;86.10
10115;BME280;5097;43.260;27.812;2023-04-27T00:06:09;99511.63;;;8.65;87.06
10115;BME280;5097;43.260;27.812;2023-04-27T00:08:53;99560.63;;;8.52;86.16
10115;BME280;5097;43.260;27.812;2023-04-27T00:11:39;99511.88;;;8.27;86.36
10115;BME280;5097;43.260;27.812;2023-04-27T00:14:23;99508.16;;;8.31;85.71
10115;BME280;5097;43.260;27.812;2023-04-27T00:17:10;99512.81;;;8.26;85.12
10115;BME280;5097;43.260;27.812;2023-04-27T00:19:54;99520.44;;;8.15;84.54
10115;BME280;5097;43.260;27.812;2023-04-27T00:22:38;99545.84;;;8.49;85.38
10115;BME280;5097;43.260;27.812;2023-04-27T00:25:22;99509.91;;;8.15;85.01
10115;BME280;5097;43.260;27.812;2023-04-27T00:28:08;99543.59;;;8.42;84.26
10115;BME280;5097;43.260;27.812;2023-04-27T00:30:52;99508.81;;;8.19;83.95
10115;BME280;5097;43.260;27.812;2023-04-27T00:33:36;99537.44;;;7.92;83.68
10115;BME280;5097;43.260;27.812;2023-04-27T00:36:20;99506.84;;;8.07;82.77
10115;BME280;5097;43.260;27.812;2023-04-27T00:39:04;99519.38;;;8.01;82.57
10115;BME280;5097;43.260;27.812;2023-04-27T00:41:48;99561.88;;;8.27;81.83
10115;BME280;5097;43.260;27.812;2023-04-27T00:44:36;99496.31;;;8.07;82.10
10115;BME280;5097;43.260;27.812;2023-04-27T00:47:21;99528.56;;;8.10;81.21
10115;BME280;5097;43.260;27.812;2023-04-27T00:50:06;99487.41;;;7.76;80.28
10115;BME280;5097;43.260;27.812;2023-04-27T00:52:52;99540.69;;;8.13;79.37
10115;BME280;5097;43.260;27.812;2023-04-27T00:55:36;99552.31;;;8.09;79.90
10115;BME280;5097;43.260;27.812;2023-04-27T00:58:20;99471.78;;;7.72;78.78
10115;BME280;5097;43.260;27.812;2023-04-27T01:01:06;99555.66;;;7.95;80.04
10115;BME280;5097;43.260;27.812;2023-04-27T01:03:52;99479.38;;;7.61;78.68
10115;BME280;5097;43.260;27.812;2023-04-27T01:06:37;99567.66;;;8.00;78.72
10115;BME280;5097;43.260;27.812;2023-04-27T01:09:23;99549.75;;;8.07;79.08
10115;BME280;5097;43.260;27.812;2023-04-27T01:12:07;99526.06;;;7.74;78.37
10115;BME280;5097;43.260;27.812;2023-04-27T01:14:51;99520.63;;;7.77;79.65
10115;BME280;5097;43.260;27.812;2023-04-27T01:17:36;99551.91;;;8.16;80.55
10115;BME280;5097;43.260;27.812;2023-04-27T01:20:21;99514.75;;;7.54;80.33
10115;BME280;5097;43.260;27.812;2023-04-27T01:23:05;99531.88;;;7.63;81.11
10115;BME280;5097;43.260;27.812;2023-04-27T01:25:51;99484.72;;;7.42;80.28
10115;BME280;5097;43.260;27.812;2023-04-27T01:28:35;99519.88;;;7.75;80.85
10115;BME280;5097;43.260;27.812;2023-04-27T01:31:19;99465.63;;;7.21;80.56
10115;BME280;5097;43.260;27.812;2023-04-27T01:34:03;99547.78;;;7.77;80.13
10115;BME280;5097;43.260;27.812;2023-04-27T01:36:48;99567.81;;;7.80;79.73
10115;BME280;5097;43.260;27.812;2023-04-27T01:39:32;99572.22;;;7.79;78.85
10115;BME280;5097;43.260;27.812;2023-04-27T01:42:17;99578.66;;;7.74;78.11
10115;BME280;5097;43.260;27.812;2023-04-27T01:45:01;99502.41;;;7.21;78.41
10115;BME280;5097;43.260;27.812;2023-04-27T01:47:49;99573.84;;;7.64;76.77
10115;BME280;5097;43.260;27.812;2023-04-27T01:50:35;99558.03;;;7.29;76.99
10115;BME280;5097;43.260;27.812;2023-04-27T01:53:21;99554.03;;;7.40;75.90
10115;BME280;5097;43.260;27.812;2023-04-27T01:56:05;99499.59;;;7.07;76.42
10115;BME280;5097;43.260;27.812;2023-04-27T01:58:51;99519.25;;;6.98;76.54
10115;BME280;5097;43.260;27.812;2023-04-27T02:01:35;99567.75;;;7.27;76.47
10115;BME280;5097;43.260;27.812;2023-04-27T02:04:19;99583.66;;;7.61;76.54
10115;BME280;5097;43.260;27.812;2023-04-27T02:07:04;99557.75;;;7.35;76.70
10115;BME280;5097;43.260;27.812;2023-04-27T02:09:50;99578.44;;;7.24;76.90
10115;BME280;5097;43.260;27.812;2023-04-27T02:12:33;99573.31;;;7.21;76.58
10115;BME280;5097;43.260;27.812;2023-04-27T02:15:20;99571.13;;;7.12;76.41
10115;BME280;5097;43.260;27.812;2023-04-27T02:18:04;99622.84;;;7.48;75.89
10115;BME280;5097;43.260;27.812;2023-04-27T02:20:49;99635.81;;;7.51;75.03
10115;BME280;5097;43.260;27.812;2023-04-27T02:23:33;99591.72;;;7.21;75.04
10115;BME280;5097;43.260;27.812;2023-04-27T02:26:18;99585.66;;;7.19;75.78
10115;BME280;5097;43.260;27.812;2023-04-27T02:29:04;99632.44;;;7.49;75.98
10115;BME280;5097;43.260;27.812;2023-04-27T02:31:49;99607.88;;;7.31;75.84
10115;BME280;5097;43.260;27.812;2023-04-27T02:34:33;99587.56;;;7.34;76.31
10115;BME280;5097;43.260;27.812;2023-04-27T02:37:17;99599.25;;;7.29;76.44
10115;BME280;5097;43.260;27.812;2023-04-27T02:40:02;99521.91;;;6.79;77.12
10115;BME280;5097;43.260;27.812;2023-04-27T02:42:49;99619.94;;;7.35;77.08
10115;BME280;5097;43.260;27.812;2023-04-27T02:45:36;99616.81;;;7.46;76.65
10115;BME280;5097;43.260;27.812;2023-04-27T02:48:22;99607.00;;;7.49;76.58
10115;BME280;5097;43.260;27.812;2023-04-27T02:51:05;99603.78;;;7.25;76.56
10115;BME280;5097;43.260;27.812;2023-04-27T02:53:52;99612.53;;;7.62;76.72
10115;BME280;5097;43.260;27.812;2023-04-27T02:56:36;99595.03;;;7.25;77.29
10115;BME280;5097;43.260;27.812;2023-04-27T02:59:20;99567.00;;;7.25;77.83
10115;BME280;5097;43.260;27.812;2023-04-27T03:02:04;99620.34;;;7.45;78.80
10115;BME280;5097;43.260;27.812;2023-04-27T03:04:52;99598.53;;;7.25;79.99
10115;BME280;5097;43.260;27.812;2023-04-27T03:07:38;99578.38;;;7.07;81.74
10115;BME280;5097;43.260;27.812;2023-04-27T03:10:22;99566.69;;;6.95;81.02
10115;BME280;5097;43.260;27.812;2023-04-27T03:13:06;99568.03;;;7.03;81.01
10115;BME280;5097;43.260;27.812;2023-04-27T03:15:50;99637.97;;;7.43;81.46
10115;BME280;5097;43.260;27.812;2023-04-27T03:18:35;99554.06;;;7.20;80.63
10115;BME280;5097;43.260;27.812;2023-04-27T03:21:20;99624.03;;;7.41;80.72
10115;BME280;5097;43.260;27.812;2023-04-27T03:24:05;99643.94;;;7.46;80.79
10115;BME280;5097;43.260;27.812;2023-04-27T03:26:49;99663.06;;;7.67;79.74
10115;BME280;5097;43.260;27.812;2023-04-27T03:29:36;99645.06;;;7.41;79.53
10115;BME280;5097;43.260;27.812;2023-04-27T03:32:20;99633.53;;;7.62;79.12
10115;BME280;5097;43.260;27.812;2023-04-27T03:35:05;99667.09;;;7.38;78.48
10115;BME280;5097;43.260;27.812;2023-04-27T03:37:52;99653.59;;;7.46;79.23
10115;BME280;5097;43.260;27.812;2023-04-27T03:40:36;99658.72;;;7.49;78.44
10115;BME280;5097;43.260;27.812;2023-04-27T03:43:20;99618.56;;;7.28;78.50
10115;BME280;5097;43.260;27.812;2023-04-27T03:46:05;99657.00;;;7.48;77.39
10115;BME280;5097;43.260;27.812;2023-04-27T03:48:49;99636.25;;;7.05;77.25
10115;BME280;5097;43.260;27.812;2023-04-27T03:51:34;99630.69;;;7.11;76.20
10115;BME280;5097;43.260;27.812;2023-04-27T03:54:21;99659.53;;;7.13;75.61
10115;BME280;5097;43.260;27.812;2023-04-27T03:57:05;99627.94;;;7.14;75.82
10115;BME280;5097;43.260;27.812;2023-04-27T03:59:50;99689.69;;;7.42;75.43
10115;BME280;5097;43.260;27.812;2023-04-27T04:02:34;99628.28;;;7.07;74.85
10115;BME280;5097;43.260;27.812;2023-04-27T04:05:19;99642.97;;;6.92;74.93
10115;BME280;5097;43.260;27.812;2023-04-27T04:08:03;99690.91;;;7.16;75.19
10115;BME280;5097;43.260;27.812;2023-04-27T04:10:49;99656.47;;;7.22;75.21
10115;BME280;5097;43.260;27.812;2023-04-27T04:13:33;99680.72;;;7.27;74.57
10115;BME280;5097;43.260;27.812;2023-04-27T04:16:18;99662.00;;;7.16;74.28
10115;BME280;5097;43.260;27.812;2023-04-27T04:19:02;99696.44;;;7.48;74.20
10115;BME280;5097;43.260;27.812;2023-04-27T04:21:46;99699.34;;;7.42;74.11
10115;BME280;5097;43.260;27.812;2023-04-27T04:24:31;99604.00;;;7.01;73.36
10115;BME280;5097;43.260;27.812;2023-04-27T04:27:16;99697.13;;;7.51;73.53
10115;BME280;5097;43.260;27.812;2023-04-27T04:30:00;99663.53;;;7.39;72.79
10115;BME280;5097;43.260;27.812;2023-04-27T04:32:49;99648.78;;;7.36;73.61
10115;BME280;5097;43.260;27.812;2023-04-27T04:35:36;99685.44;;;7.40;73.66
10115;BME280;5097;43.260;27.812;2023-04-27T04:38:21;99705.69;;;7.74;73.40
10115;BME280;5097;43.260;27.812;2023-04-27T04:41:06;99673.06;;;7.42;72.79
10115;BME280;5097;43.260;27.812;2023-04-27T04:43:53;99639.34;;;7.32;73.47
10115;BME280;5097;43.260;27.812;2023-04-27T04:46:37;99683.50;;;7.43;73.39
10115;BME280;5097;43.260;27.812;2023-04-27T04:49:21;99684.06;;;7.50;73.73
10115;BME280;5097;43.260;27.812;2023-04-27T04:52:05;99722.81;;;7.83;73.57
10115;BME280;5097;43.260;27.812;2023-04-27T04:54:50;99684.72;;;7.36;73.83
10115;BME280;5097;43.260;27.812;2023-04-27T04:57:35;99730.16;;;7.76;74.02
10115;BME280;5097;43.260;27.812;2023-04-27T05:00:21;99698.31;;;7.63;72.98
10115;BME280;5097;43.260;27.812;2023-04-27T05:03:05;99686.13;;;7.62;73.93
10115;BME280;5097;43.260;27.812;2023-04-27T05:05:50;99759.44;;;7.68;73.54
10115;BME280;5097;43.260;27.812;2023-04-27T05:08:34;99712.25;;;7.65;73.61
10115;BME280;5097;43.260;27.812;2023-04-27T05:11:18;99699.31;;;7.80;73.78
10115;BME280;5097;43.260;27.812;2023-04-27T05:14:03;99699.16;;;7.83;72.30
10115;BME280;5097;43.260;27.812;2023-04-27T05:16:49;99735.53;;;7.92;73.02
10115;BME280;5097;43.260;27.812;2023-04-27T05:19:33;99763.97;;;7.84;73.54
10115;BME280;5097;43.260;27.812;2023-04-27T05:22:17;99692.78;;;7.69;73.55
10115;BME280;5097;43.260;27.812;2023-04-27T05:25:01;99715.09;;;7.80;72.91
10115;BME280;5097;43.260;27.812;2023-04-27T05:27:46;99714.72;;;7.68;73.10
10115;BME280;5097;43.260;27.812;2023-04-27T05:30:30;99708.38;;;7.92;72.98
10115;BME280;5097;43.260;27.812;2023-04-27T05:33:16;99700.69;;;7.87;72.97
10115;BME280;5097;43.260;27.812;2023-04-27T05:36:00;99704.97;;;8.25;72.98
10115;BME280;5097;43.260;27.812;2023-04-27T05:38:44;99748.28;;;8.54;72.16
10115;BME280;5097;43.260;27.812;2023-04-27T05:41:29;99739.81;;;8.82;71.05
10115;BME280;5097;43.260;27.812;2023-04-27T05:44:13;99701.22;;;8.48;71.18
10115;BME280;5097;43.260;27.812;2023-04-27T05:46:57;99735.88;;;8.91;70.33
10115;BME280;5097;43.260;27.812;2023-04-27T05:49:43;99668.88;;;8.46;70.21
10115;BME280;5097;43.260;27.812;2023-04-27T05:52:27;99761.38;;;9.06;68.79
10115;BME280;5097;43.260;27.812;2023-04-27T05:55:12;99725.34;;;8.91;69.34
10115;BME280;5097;43.260;27.812;2023-04-27T05:57:56;99717.69;;;9.02;68.19
10115;BME280;5097;43.260;27.812;2023-04-27T06:00:50;99764.97;;;9.05;67.84
10115;BME280;5097;43.260;27.812;2023-04-27T06:03:34;99769.31;;;8.89;68.27
10115;BME280;5097;43.260;27.812;2023-04-27T06:06:20;99731.84;;;9.33;68.52
10115;BME280;5097;43.260;27.812;2023-04-27T06:09:04;99759.75;;;9.37;66.68
10115;BME280;5097;43.260;27.812;2023-04-27T06:11:48;99754.88;;;9.63;67.02
10115;BME280;5097;43.260;27.812;2023-04-27T06:14:33;99765.41;;;9.14;68.20
10115;BME280;5097;43.260;27.812;2023-04-27T06:17:18;99746.06;;;8.97;67.30
10115;BME280;5097;43.260;27.812;2023-04-27T06:20:02;99786.56;;;9.46;66.57
10115;BME280;5097;43.260;27.812;2023-04-27T06:22:49;99734.97;;;9.24;67.03
10115;BME280;5097;43.260;27.812;2023-04-27T06:25:35;99732.13;;;8.95;66.04
10115;BME280;5097;43.260;27.812;2023-04-27T06:28:21;99781.56;;;9.57;66.15
10115;BME280;5097;43.260;27.812;2023-04-27T06:31:06;99799.81;;;9.11;66.02
10115;BME280;5097;43.260;27.812;2023-04-27T06:33:50;99821.91;;;9.42;64.63
10115;BME280;5097;43.260;27.812;2023-04-27T06:36:34;99756.28;;;9.03;63.07
10115;BME280;5097;43.260;27.812;2023-04-27T06:39:19;99801.09;;;9.37;63.25
10115;BME280;5097;43.260;27.812;2023-04-27T06:42:04;99793.41;;;9.66;62.67
10115;BME280;5097;43.260;27.812;2023-04-27T06:44:52;99807.44;;;9.66;62.90
10115;BME280;5097;43.260;27.812;2023-04-27T06:47:36;99792.66;;;9.30;62.34
10115;BME280;5097;43.260;27.812;2023-04-27T06:50:21;99788.78;;;9.53;60.57
10115;BME280;5097;43.260;27.812;2023-04-27T06:53:05;99803.16;;;9.48;60.71
10115;BME280;5097;43.260;27.812;2023-04-27T06:55:51;99833.13;;;9.79;60.81
10115;BME280;5097;43.260;27.812;2023-04-27T06:58:35;99792.53;;;9.65;61.54
10115;BME280;5097;43.260;27.812;2023-04-27T07:01:19;99792.09;;;10.21;59.77
10115;BME280;5097;43.260;27.812;2023-04-27T07:04:04;99843.03;;;10.39;60.13
10115;BME280;5097;43.260;27.812;2023-04-27T07:06:48;99853.25;;;10.45;57.89
10115;BME280;5097;43.260;27.812;2023-04-27T07:09:32;99795.28;;;10.58;57.63
10115;BME280;5097;43.260;27.812;2023-04-27T07:12:18;99838.19;;;10.78;56.51
10115;BME280;5097;43.260;27.812;2023-04-27T07:15:02;99804.81;;;10.14;58.02
10115;BME280;5097;43.260;27.812;2023-04-27T07:17:47;99843.19;;;10.52;58.07
10115;BME280;5097;43.260;27.812;2023-04-27T07:20:32;99801.28;;;10.46;55.99
10115;BME280;5097;43.260;27.812;2023-04-27T07:23:16;99799.91;;;11.14;56.49
10115;BME280;5097;43.260;27.812;2023-04-27T07:26:00;99795.00;;;11.07;54.17
10115;BME280;5097;43.260;27.812;2023-04-27T07:28:45;99853.97;;;11.53;53.39
10115;BME280;5097;43.260;27.812;2023-04-27T07:31:30;99801.59;;;11.00;52.43
10115;BME280;5097;43.260;27.812;2023-04-27T07:34:14;99800.00;;;11.41;53.12
10115;BME280;5097;43.260;27.812;2023-04-27T07:36:58;99831.44;;;11.89;52.25
10115;BME280;5097;43.260;27.812;2023-04-27T07:39:43;99841.88;;;11.49;51.65
10115;BME280;5097;43.260;27.812;2023-04-27T07:42:28;99840.16;;;11.19;49.75
10115;BME280;5097;43.260;27.812;2023-04-27T07:45:13;99827.50;;;11.10;49.87
10115;BME280;5097;43.260;27.812;2023-04-27T07:47:59;99809.88;;;10.80;50.07
10115;BME280;5097;43.260;27.812;2023-04-27T07:50:44;99850.84;;;10.56;50.04
10115;BME280;5097;43.260;27.812;2023-04-27T07:53:28;99819.59;;;10.33;51.46
10115;BME280;5097;43.260;27.812;2023-04-27T07:56:12;99834.88;;;10.58;51.45
10115;BME280;5097;43.260;27.812;2023-04-27T07:58:56;99768.31;;;10.53;52.18
10115;BME280;5097;43.260;27.812;2023-04-27T08:01:42;99801.88;;;10.51;53.77
10115;BME280;5097;43.260;27.812;2023-04-27T08:04:26;99830.78;;;10.99;52.27
10115;BME280;5097;43.260;27.812;2023-04-27T08:07:11;99823.78;;;10.98;51.59
10115;BME280;5097;43.260;27.812;2023-04-27T08:09:55;99823.41;;;10.59;51.44
10115;BME280;5097;43.260;27.812;2023-04-27T08:12:39;99826.31;;;10.99;50.57
10115;BME280;5097;43.260;27.812;2023-04-27T08:15:23;99843.47;;;10.78;49.81
10115;BME280;5097;43.260;27.812;2023-04-27T08:18:09;99800.50;;;11.19;50.47
10115;BME280;5097;43.260;27.812;2023-04-27T08:20:53;99815.72;;;10.85;50.75
10115;BME280;5097;43.260;27.812;2023-04-27T08:23:37;99821.66;;;11.19;51.01
10115;BME280;5097;43.260;27.812;2023-04-27T08:26:21;99788.97;;;11.05;51.03
10115;BME280;5097;43.260;27.812;2023-04-27T08:29:07;99801.00;;;10.81;50.42
10115;BME280;5097;43.260;27.812;2023-04-27T08:32:08;99808.22;;;11.22;49.67
10115;BME280;5097;43.260;27.812;2023-04-27T08:34:54;99786.66;;;10.85;49.90
10115;BME280;5097;43.260;27.812;2023-04-27T08:37:38;99790.66;;;11.21;49.99
10115;BME280;5097;43.260;27.812;2023-04-27T08:40:22;99764.41;;;11.03;50.21
10115;BME280;5097;43.260;27.812;2023-04-27T08:43:07;99803.69;;;11.38;50.54
10115;BME280;5097;43.260;27.812;2023-04-27T08:45:52;99775.16;;;11.58;50.88
10115;BME280;5097;43.260;27.812;2023-04-27T08:48:36;99755.69;;;11.73;49.81
10115;BME280;5097;43.260;27.812;2023-04-27T08:51:24;99784.56;;;11.91;49.88
10115;BME280;5097;43.260;27.812;2023-04-27T08:54:09;99741.97;;;12.09;50.38
10115;BME280;5097;43.260;27.812;2023-04-27T08:56:54;99722.25;;;12.40;48.61
10115;BME280;5097;43.260;27.812;2023-04-27T08:59:38;99790.78;;;12.72;47.07
10115;BME280;5097;43.260;27.812;2023-04-27T09:02:23;99770.03;;;12.38;47.90
10115;BME280;5097;43.260;27.812;2023-04-27T09:05:14;99753.03;;;12.81;46.63
10115;BME280;5097;43.260;27.812;2023-04-27T09:08:03;99798.81;;;12.70;46.44
10115;BME280;5097;43.260;27.812;2023-04-27T09:10:51;99776.28;;;13.03;46.50
10115;BME280;5097;43.260;27.812;2023-04-27T09:13:37;99789.38;;;12.66;47.42
10115;BME280;5097;43.260;27.812;2023-04-27T09:16:23;99736.69;;;12.09;46.87
10115;BME280;5097;43.260;27.812;2023-04-27T09:19:08;99809.94;;;12.63;45.89
10115;BME280;5097;43.260;27.812;2023-04-27T09:22:02;99800.84;;;12.93;46.72
10115;BME280;5097;43.260;27.812;2023-04-27T09:24:51;99844.69;;;13.11;45.94
10115;BME280;5097;43.260;27.812;2023-04-27T09:27:37;99805.00;;;12.84;47.06
10115;BME280;5097;43.260;27.812;2023-04-27T09:30:21;99824.81;;;12.78;46.39
10115;BME280;5097;43.260;27.812;2023-04-27T09:33:06;99808.91;;;12.78;46.16
10115;BME280;5097;43.260;27.812;2023-04-27T09:35:50;99822.06;;;12.80;46.30
10115;BME280;5097;43.260;27.812;2023-04-27T09:38:37;99774.13;;;12.83;46.16
10115;BME280;5097;43.260;27.812;2023-04-27T09:41:24;99756.13;;;12.88;45.92
10115;BME280;5097;43.260;27.812;2023-04-27T09:44:08;99788.78;;;13.27;45.07
10115;BME280;5097;43.260;27.812;2023-04-27T09:46:54;99770.88;;;12.39;45.19
10115;BME280;5097;43.260;27.812;2023-04-27T09:49:41;99786.22;;;13.51;45.79
10115;BME280;5097;43.260;27.812;2023-04-27T09:52:25;99788.91;;;13.00;46.08
10115;BME280;5097;43.260;27.812;2023-04-27T09:55:12;99799.59;;;13.11;45.23
10115;BME280;5097;43.260;27.812;2023-04-27T09:58:10;99786.53;;;12.95;46.12
10115;BME280;5097;43.260;27.812;2023-04-27T10:01:09;99805.09;;;13.72;45.38
10115;BME280;5097;43.260;27.812;2023-04-27T10:04:08;99786.66;;;13.06;45.16
10115;BME280;5097;43.260;27.812;2023-04-27T10:06:58;99814.28;;;13.43;46.10
10115;BME280;5097;43.260;27.812;2023-04-27T10:09:44;99823.31;;;13.53;45.23
10115;BME280;5097;43.260;27.812;2023-04-27T10:12:33;99839.31;;;13.64;45.37
10115;BME280;5097;43.260;27.812;2023-04-27T10:15:25;99847.75;;;13.82;45.68
10115;BME280;5097;43.260;27.812;2023-04-27T10:18:10;99837.22;;;13.44;45.61
10115;BME280;5097;43.260;27.812;2023-04-27T10:20:56;99806.09;;;13.20;45.61
10115;BME280;5097;43.260;27.812;2023-04-27T10:23:47;99817.47;;;13.48;44.55
10115;BME280;5097;43.260;27.812;2023-04-27T10:26:34;99822.97;;;13.57;43.74
10115;BME280;5097;43.260;27.812;2023-04-27T10:29:21;99841.41;;;13.20;44.42
10115;BME280;5097;43.260;27.812;2023-04-27T10:32:08;99871.78;;;13.55;45.12
10115;BME280;5097;43.260;27.812;2023-04-27T10:35:02;99904.28;;;13.46;43.71
10115;BME280;5097;43.260;27.812;2023-04-27T10:37:48;99889.09;;;13.61;45.83
10115;BME280;5097;43.260;27.812;2023-04-27T10:40:34;99858.00;;;13.50;44.23
10115;BME280;5097;43.260;27.812;2023-04-27T10:43:23;99820.00;;;13.36;45.10
10115;BME280;5097;43.260;27.812;2023-04-27T10:46:10;99858.84;;;13.50;44.22
10115;BME280;5097;43.260;27.812;2023-04-27T10:48:56;99845.97;;;14.20;43.94
10115;BME280;5097;43.260;27.812;2023-04-27T10:51:41;99876.75;;;13.72;44.35
10115;BME280;5097;43.260;27.812;2023-04-27T10:54:26;99832.50;;;13.73;44.09
10115;BME280;5097;43.260;27.812;2023-04-27T10:57:11;99881.06;;;14.12;44.39
10115;BME280;5097;43.260;27.812;2023-04-27T10:59:55;99831.63;;;13.34;43.59
10115;BME280;5097;43.260;27.812;2023-04-27T11:02:40;99838.16;;;13.43;44.22
10115;BME280;5097;43.260;27.812;2023-04-27T11:05:26;99864.25;;;13.74;43.92
10115;BME280;5097;43.260;27.812;2023-04-27T11:08:15;99866.75;;;13.89;44.92
10115;BME280;5097;43.260;27.812;2023-04-27T11:11:00;99827.47;;;14.18;42.82
10115;BME280;5097;43.260;27.812;2023-04-27T11:13:47;99884.78;;;14.10;42.82
10115;BME280;5097;43.260;27.812;2023-04-27T11:16:32;99826.03;;;13.64;44.71
10115;BME280;5097;43.260;27.812;2023-04-27T11:19:17;99870.38;;;13.88;42.85
10115;BME280;5097;43.260;27.812;2023-04-27T11:22:04;99854.81;;;14.07;43.42
10115;BME280;5097;43.260;27.812;2023-04-27T11:24:49;99860.16;;;14.32;44.33
10115;BME280;5097;43.260;27.812;2023-04-27T11:27:37;99863.56;;;14.34;43.09
10115;BME280;5097;43.260;27.812;2023-04-27T11:30:24;99829.41;;;13.79;44.48
10115;BME280;5097;43.260;27.812;2023-04-27T11:33:08;99856.94;;;14.88;44.11
10115;BME280;5097;43.260;27.812;2023-04-27T11:35:53;99826.50;;;14.44;42.40
10115;BME280;5097;43.260;27.812;2023-04-27T11:38:41;99868.84;;;14.47;43.20
10115;BME280;5097;43.260;27.812;2023-04-27T11:41:32;99856.88;;;15.12;41.93
10115;BME280;5097;43.260;27.812;2023-04-27T11:44:16;99876.34;;;14.53;42.54
10115;BME280;5097;43.260;27.812;2023-04-27T11:47:01;99823.53;;;14.24;42.39
10115;BME280;5097;43.260;27.812;2023-04-27T11:49:47;99834.56;;;14.55;42.72
10115;BME280;5097;43.260;27.812;2023-04-27T11:52:33;99852.38;;;14.41;42.20
10115;BME280;5097;43.260;27.812;2023-04-27T11:55:21;99884.03;;;14.07;43.49
10115;BME280;5097;43.260;27.812;2023-04-27T11:58:12;99879.19;;;13.75;42.28
10115;BME280;5097;43.260;27.812;2023-04-27T12:00:57;99888.91;;;14.14;42.06
10115;BME280;5097;43.260;27.812;2023-04-27T12:03:41;99851.84;;;14.36;41.86
10115;BME280;5097;43.260;27.812;2023-04-27T12:06:25;99846.06;;;14.42;41.94
10115;BME280;5097;43.260;27.812;2023-04-27T12:09:15;99869.72;;;14.83;40.98
10115;BME280;5097;43.260;27.812;2023-04-27T12:12:02;99861.16;;;14.79;41.32
10115;BME280;5097;43.260;27.812;2023-04-27T12:14:46;99879.91;;;14.89;42.16
10115;BME280;5097;43.260;27.812;2023-04-27T12:17:31;99856.31;;;14.36;41.58
10115;BME280;5097;43.260;27.812;2023-04-27T12:20:15;99852.44;;;15.24;42.04
10115;BME280;5097;43.260;27.812;2023-04-27T12:23:00;99850.84;;;14.74;40.77
10115;BME280;5097;43.260;27.812;2023-04-27T12:25:44;99856.66;;;15.15;40.68
10115;BME280;5097;43.260;27.812;2023-04-27T12:28:30;99876.59;;;14.61;41.22
10115;BME280;5097;43.260;27.812;2023-04-27T13:32:22;99912.28;;;15.07;43.66
10115;BME280;5097;43.260;27.812;2023-04-27T13:35:07;99936.47;;;15.73;43.44
10115;BME280;5097;43.260;27.812;2023-04-27T13:37:52;99899.25;;;15.27;44.50
10115;BME280;5097;43.260;27.812;2023-04-27T13:40:36;99917.56;;;15.42;43.47
10115;BME280;5097;43.260;27.812;2023-04-27T13:43:20;99947.69;;;15.07;43.89
10115;BME280;5097;43.260;27.812;2023-04-27T13:46:04;99906.84;;;14.60;43.59
10115;BME280;5097;43.260;27.812;2023-04-27T13:48:50;99921.91;;;14.97;43.50
10115;BME280;5097;43.260;27.812;2023-04-27T13:51:34;99903.47;;;15.18;44.13
10115;BME280;5097;43.260;27.812;2023-04-27T13:54:19;99902.41;;;15.32;42.91
10115;BME280;5097;43.260;27.812;2023-04-27T13:57:03;99905.97;;;15.08;42.75
10115;BME280;5097;43.260;27.812;2023-04-27T13:59:47;99955.78;;;14.45;42.97
10115;BME280;5097;43.260;27.812;2023-04-27T14:02:31;99910.38;;;14.48;43.33
10115;BME280;5097;43.260;27.812;2023-04-27T14:05:17;99920.78;;;14.27;43.74
10115;BME280;5097;43.260;27.812;2023-04-27T14:08:01;99934.69;;;14.91;43.37
10115;BME280;5097;43.260;27.812;2023-04-27T14:10:47;99899.38;;;14.65;44.21
10115;BME280;5097;43.260;27.812;2023-04-27T14:13:32;99921.66;;;15.35;42.99
10115;BME280;5097;43.260;27.812;2023-04-27T14:16:16;99938.63;;;15.57;42.67
10115;BME280;5097;43.260;27.812;2023-04-27T14:19:00;99912.94;;;15.33;41.78
10115;BME280;5097;43.260;27.812;2023-04-27T14:21:46;99936.22;;;15.65;42.53
10115;BME280;5097;43.260;27.812;2023-04-27T14:24:30;99933.38;;;16.02;42.23
10115;BME280;5097;43.260;27.812;2023-04-27T14:27:14;99962.97;;;15.17;44.08
10115;BME280;5097;43.260;27.812;2023-04-27T14:29:58;99937.78;;;15.56;44.03
10115;BME280;5097;43.260;27.812;2023-04-27T14:32:45;99893.97;;;15.49;44.19
10115;BME280;5097;43.260;27.812;2023-04-27T14:35:33;99918.00;;;15.36;43.89
10115;BME280;5097;43.260;27.812;2023-04-27T14:38:20;99949.50;;;15.42;44.31
10115;BME280;5097;43.260;27.812;2023-04-27T14:41:04;99931.81;;;15.30;45.75
10115;BME280;5097;43.260;27.812;2023-04-27T14:43:50;99922.75;;;15.44;45.22
10115;BME280;5097;43.260;27.812;2023-04-27T14:46:35;99951.91;;;16.04;45.85
10115;BME280;5097;43.260;27.812;2023-04-27T14:49:20;99956.41;;;15.56;46.45
10115;BME280;5097;43.260;27.812;2023-04-27T14:52:04;99913.94;;;15.55;46.13
10115;BME280;5097;43.260;27.812;2023-04-27T14:54:49;99943.22;;;15.08;46.38
10115;BME280;5097;43.260;27.812;2023-04-27T14:57:34;99942.91;;;15.24;47.02
10115;BME280;5097;43.260;27.812;2023-04-27T15:00:19;99958.19;;;14.98;47.17
10115;BME280;5097;43.260;27.812;2023-04-27T15:03:03;99970.41;;;15.00;47.04
10115;BME280;5097;43.260;27.812;2023-04-27T15:05:48;99928.53;;;14.54;48.55
10115;BME280;5097;43.260;27.812;2023-04-27T15:08:33;99968.47;;;14.78;47.89
10115;BME280;5097;43.260;27.812;2023-04-27T15:11:18;99920.25;;;14.21;48.56
10115;BME280;5097;43.260;27.812;2023-04-27T15:14:03;99962.00;;;14.19;48.92
10115;BME280;5097;43.260;27.812;2023-04-27T15:16:48;99966.69;;;13.90;49.97
10115;BME280;5097;43.260;27.812;2023-04-27T15:19:32;99931.66;;;13.59;48.94
10115;BME280;5097;43.260;27.812;2023-04-27T15:22:16;99947.59;;;13.59;48.94
10115;BME280;5097;43.260;27.812;2023-04-27T15:25:00;99979.97;;;13.90;47.73
10115;BME280;5097;43.260;27.812;2023-04-27T15:27:46;99989.84;;;13.49;47.34
10115;BME280;5097;43.260;27.812;2023-04-27T15:30:33;99966.13;;;13.06;47.20
10115;BME280;5097;43.260;27.812;2023-04-27T15:33:17;99947.38;;;13.22;46.87
10115;BME280;5097;43.260;27.812;2023-04-27T15:36:01;99982.09;;;13.19;47.97
10115;BME280;5097;43.260;27.812;2023-04-27T15:38:45;99961.34;;;12.98;48.11
10115;BME280;5097;43.260;27.812;2023-04-27T15:41:29;99957.84;;;12.98;49.27